sensor_id;sensor_type;location;lat;lon;timestamp;pressure;altitude;pressure_sealevel;temperature;humidity
50065;BME280;35951;47.848;-122.338;2022-08-19T00:01:37;100959.67;;;24.06;100.00
50065;BME280;35951;47.848;-122.338;2022-08-19T00:04:09;100948.94;;;24.09;100.00
50065;BME280;35951;47.848;-122.338;2022-08-19T00:06:39;100942.52;;;24.14;100.00
50065;BME280;35951;47.848;-122.338;2022-08-19T00:09:10;100943.58;;;24.21;100.00
50065;BME280;35951;47.848;-122.338;2022-08-19T00:11:40;100943.78;;;24.26;100.00
50065;BME280;35951;47.848;-122.338;2022-08-19T00:14:11;100943.55;;;24.32;100.00
50065;BME280;35951;47.848;-122.338;2022-08-19T00:16:41;100952.19;;;24.38;100.00
50065;BME280;35951;47.848;-122.338;2022-08-19T00:19:09;100959.52;;;24.41;100.00
50065;BME280;35951;47.848;-122.338;2022-08-19T00:21:38;100955.36;;;24.46;100.00
50065;BME280;35951;47.848;-122.338;2022-08-19T00:24:07;100960.14;;;24.48;100.00
50065;BME280;35951;47.848;-122.338;2022-08-19T00:26:38;100962.32;;;24.48;100.00
50065;BME280;35951;47.848;-122.338;2022-08-19T00:29:08;100961.09;;;24.47;100.00
50065;BME280;35951;47.848;-122.338;2022-08-19T00:31:38;100969.05;;;24.47;100.00
50065;BME280;35951;47.848;-122.338;2022-08-19T00:34:07;100960.67;;;24.46;100.00
50065;BME280;35951;47.848;-122.338;2022-08-19T00:36:34;100964.77;;;24.43;100.00
50065;BME280;35951;47.848;-122.338;2022-08-19T00:39:03;100965.37;;;24.39;100.00
50065;BME280;35951;47.848;-122.338;2022-08-19T00:41:30;100956.75;;;24.34;100.00
50065;BME280;35951;47.848;-122.338;2022-08-19T00:44:01;100960.97;;;24.28;100.00
50065;BME280;35951;47.848;-122.338;2022-08-19T00:46:31;100950.36;;;24.18;100.00
50065;BME280;35951;47.848;-122.338;2022-08-19T00:49:00;100945.28;;;24.11;100.00
50065;BME280;35951;47.848;-122.338;2022-08-19T00:51:31;100945.93;;;24.06;100.00
50065;BME280;35951;47.848;-122.338;2022-08-19T00:53:59;100939.45;;;24.03;100.00
50065;BME280;35951;47.848;-122.338;2022-08-19T00:56:27;100933.40;;;24.00;100.00
50065;BME280;35951;47.848;-122.338;2022-08-19T00:58:58;100935.31;;;23.96;100.00
50065;BME280;35951;47.848;-122.338;2022-08-19T01:01:27;100936.22;;;23.95;100.00
50065;BME280;35951;47.848;-122.338;2022-08-19T01:03:56;100941.59;;;23.93;100.00
50065;BME280;35951;47.848;-122.338;2022-08-19T01:06:24;100940.26;;;23.93;100.00
50065;BME280;35951;47.848;-122.338;2022-08-19T01:08:55;100938.98;;;23.92;100.00
50065;BME280;35951;47.848;-122.338;2022-08-19T01:11:23;100942.64;;;23.89;100.00
50065;BME280;35951;47.848;-122.338;2022-08-19T01:13:52;100930.77;;;23.88;100.00
50065;BME280;35951;47.848;-122.338;2022-08-19T01:16:22;100929.38;;;23.89;100.00
50065;BME280;35951;47.848;-122.338;2022-08-19T01:18:51;100937.66;;;23.92;100.00
50065;BME280;35951;47.848;-122.338;2022-08-19T01:21:24;100931.45;;;23.93;100.00
50065;BME280;35951;47.848;-122.338;2022-08-19T01:23:53;100928.32;;;23.93;100.00
50065;BME280;35951;47.848;-122.338;2022-08-19T01:26:22;100925.23;;;23.94;100.00
50065;BME280;35951;47.848;-122.338;2022-08-19T01:28:54;100920.30;;;23.95;100.00
50065;BME280;35951;47.848;-122.338;2022-08-19T01:31:25;100914.09;;;23.96;100.00
50065;BME280;35951;47.848;-122.338;2022-08-19T01:33:56;100917.48;;;24.00;100.00
50065;BME280;35951;47.848;-122.338;2022-08-19T01:36:31;100925.23;;;24.04;100.00
50065;BME280;35951;47.848;-122.338;2022-08-19T01:39:06;100920.66;;;24.08;100.00
50065;BME280;35951;47.848;-122.338;2022-08-19T01:41:36;100914.30;;;24.12;100.00
50065;BME280;35951;47.848;-122.338;2022-08-19T01:44:05;100912.84;;;24.15;100.00
50065;BME280;35951;47.848;-122.338;2022-08-19T01:46:35;100928.30;;;24.15;100.00
50065;BME280;35951;47.848;-122.338;2022-08-19T01:49:03;100927.92;;;24.14;100.00
50065;BME280;35951;47.848;-122.338;2022-08-19T01:51:32;100925.20;;;24.16;100.00
50065;BME280;35951;47.848;-122.338;2022-08-19T01:53:59;100917.19;;;24.18;100.00
50065;BME280;35951;47.848;-122.338;2022-08-19T01:56:28;100928.59;;;24.20;100.00
50065;BME280;35951;47.848;-122.338;2022-08-19T01:58:58;100933.02;;;24.19;100.00
50065;BME280;35951;47.848;-122.338;2022-08-19T02:01:28;100919.36;;;24.18;100.00
50065;BME280;35951;47.848;-122.338;2022-08-19T02:03:58;100923.73;;;24.19;100.00
50065;BME280;35951;47.848;-122.338;2022-08-19T02:06:29;100914.53;;;24.18;100.00
50065;BME280;35951;47.848;-122.338;2022-08-19T02:08:57;100920.42;;;24.14;100.00
50065;BME280;35951;47.848;-122.338;2022-08-19T02:11:27;100914.38;;;24.10;100.00
50065;BME280;35951;47.848;-122.338;2022-08-19T02:14:01;100924.64;;;24.08;100.00
50065;BME280;35951;47.848;-122.338;2022-08-19T02:16:30;100926.56;;;24.04;100.00
50065;BME280;35951;47.848;-122.338;2022-08-19T02:18:58;100931.07;;;24.02;100.00
50065;BME280;35951;47.848;-122.338;2022-08-19T02:21:29;100941.80;;;23.99;100.00
50065;BME280;35951;47.848;-122.338;2022-08-19T02:23:57;100939.82;;;23.94;100.00
50065;BME280;35951;47.848;-122.338;2022-08-19T02:26:26;100926.67;;;23.91;100.00
50065;BME280;35951;47.848;-122.338;2022-08-19T02:28:54;100920.95;;;23.90;100.00
50065;BME280;35951;47.848;-122.338;2022-08-19T02:31:24;100918.45;;;23.87;100.00
50065;BME280;35951;47.848;-122.338;2022-08-19T02:33:54;100925.52;;;23.86;100.00
50065;BME280;35951;47.848;-122.338;2022-08-19T02:36:23;100919.03;;;23.83;100.00
50065;BME280;35951;47.848;-122.338;2022-08-19T02:38:52;100915.16;;;23.80;100.00
50065;BME280;35951;47.848;-122.338;2022-08-19T02:41:22;100901.13;;;23.76;100.00
50065;BME280;35951;47.848;-122.338;2022-08-19T02:43:56;100906.96;;;23.74;100.00
50065;BME280;35951;47.848;-122.338;2022-08-19T02:46:26;100917.16;;;23.73;100.00
50065;BME280;35951;47.848;-122.338;2022-08-19T02:48:57;100909.40;;;23.69;100.00
50065;BME280;35951;47.848;-122.338;2022-08-19T02:51:32;100912.63;;;23.65;100.00
50065;BME280;35951;47.848;-122.338;2022-08-19T02:54:03;100914.92;;;23.63;100.00
50065;BME280;35951;47.848;-122.338;2022-08-19T02:56:31;100902.25;;;23.59;100.00
50065;BME280;35951;47.848;-122.338;2022-08-19T02:58:59;100909.46;;;23.55;100.00
50065;BME280;35951;47.848;-122.338;2022-08-19T03:01:33;100908.22;;;23.54;100.00
50065;BME280;35951;47.848;-122.338;2022-08-19T03:04:00;100901.59;;;23.54;100.00
50065;BME280;35951;47.848;-122.338;2022-08-19T03:06:31;100902.50;;;23.53;100.00
50065;BME280;35951;47.848;-122.338;2022-08-19T03:09:01;100901.23;;;23.51;100.00
50065;BME280;35951;47.848;-122.338;2022-08-19T03:11:31;100912.42;;;23.48;100.00
50065;BME280;35951;47.848;-122.338;2022-08-19T03:14:00;100913.94;;;23.43;100.00
50065;BME280;35951;47.848;-122.338;2022-08-19T03:16:30;100917.22;;;23.38;100.00
50065;BME280;35951;47.848;-122.338;2022-08-19T03:18:59;100917.91;;;23.31;100.00
50065;BME280;35951;47.848;-122.338;2022-08-19T03:21:31;100916.77;;;23.27;100.00
50065;BME280;35951;47.848;-122.338;2022-08-19T03:24:02;100914.18;;;23.25;100.00
50065;BME280;35951;47.848;-122.338;2022-08-19T03:26:34;100910.20;;;23.25;100.00
50065;BME280;35951;47.848;-122.338;2022-08-19T03:29:18;100906.61;;;23.26;100.00
50065;BME280;35951;47.848;-122.338;2022-08-19T03:31:51;100907.99;;;23.25;100.00
50065;BME280;35951;47.848;-122.338;2022-08-19T03:34:24;100913.30;;;23.25;100.00
50065;BME280;35951;47.848;-122.338;2022-08-19T03:36:58;100911.11;;;23.24;100.00
50065;BME280;35951;47.848;-122.338;2022-08-19T03:39:36;100900.56;;;23.23;100.00
50065;BME280;35951;47.848;-122.338;2022-08-19T03:44:48;100895.56;;;23.15;100.00
50065;BME280;35951;47.848;-122.338;2022-08-19T03:47:16;100892.16;;;23.11;100.00
50065;BME280;35951;47.848;-122.338;2022-08-19T03:49:45;100884.79;;;23.08;100.00
50065;BME280;35951;47.848;-122.338;2022-08-19T03:52:13;100889.78;;;23.04;100.00
50065;BME280;35951;47.848;-122.338;2022-08-19T03:54:41;100898.69;;;23.01;100.00
50065;BME280;35951;47.848;-122.338;2022-08-19T03:57:10;100897.36;;;23.01;100.00
50065;BME280;35951;47.848;-122.338;2022-08-19T03:59:38;100900.09;;;22.99;100.00
50065;BME280;35951;47.848;-122.338;2022-08-19T04:02:09;100901.91;;;22.97;100.00
50065;BME280;35951;47.848;-122.338;2022-08-19T04:04:39;100907.29;;;22.96;100.00
50065;BME280;35951;47.848;-122.338;2022-08-19T04:07:09;100916.19;;;22.93;100.00
50065;BME280;35951;47.848;-122.338;2022-08-19T04:09:40;100909.80;;;22.87;100.00
50065;BME280;35951;47.848;-122.338;2022-08-19T04:12:11;100917.47;;;22.83;100.00
50065;BME280;35951;47.848;-122.338;2022-08-19T04:14:39;100908.81;;;22.78;100.00
50065;BME280;35951;47.848;-122.338;2022-08-19T04:17:07;100904.09;;;22.74;100.00
50065;BME280;35951;47.848;-122.338;2022-08-19T04:19:36;100907.26;;;22.72;100.00
50065;BME280;35951;47.848;-122.338;2022-08-19T04:22:03;100905.17;;;22.69;100.00
50065;BME280;35951;47.848;-122.338;2022-08-19T04:24:32;100895.67;;;22.63;100.00
50065;BME280;35951;47.848;-122.338;2022-08-19T04:27:01;100891.84;;;22.58;100.00
50065;BME280;35951;47.848;-122.338;2022-08-19T04:29:31;100880.97;;;22.54;100.00
50065;BME280;35951;47.848;-122.338;2022-08-19T04:32:00;100881.48;;;22.52;100.00
50065;BME280;35951;47.848;-122.338;2022-08-19T04:34:28;100885.84;;;22.53;100.00
50065;BME280;35951;47.848;-122.338;2022-08-19T04:36:57;100886.66;;;22.55;100.00
50065;BME280;35951;47.848;-122.338;2022-08-19T04:39:29;100893.17;;;22.58;100.00
50065;BME280;35951;47.848;-122.338;2022-08-19T04:42:16;100887.36;;;22.60;100.00
50065;BME280;35951;47.848;-122.338;2022-08-19T04:45:02;100898.32;;;22.63;100.00
50065;BME280;35951;47.848;-122.338;2022-08-19T04:47:30;100901.41;;;22.62;100.00
50065;BME280;35951;47.848;-122.338;2022-08-19T04:49:59;100913.79;;;22.62;100.00
50065;BME280;35951;47.848;-122.338;2022-08-19T04:52:27;100923.62;;;22.58;100.00
50065;BME280;35951;47.848;-122.338;2022-08-19T04:54:56;100928.96;;;22.57;100.00
50065;BME280;35951;47.848;-122.338;2022-08-19T04:57:24;100918.03;;;22.54;100.00
50065;BME280;35951;47.848;-122.338;2022-08-19T04:59:58;100912.79;;;22.53;100.00
50065;BME280;35951;47.848;-122.338;2022-08-19T05:02:25;100903.00;;;22.55;100.00
50065;BME280;35951;47.848;-122.338;2022-08-19T05:04:59;100904.28;;;22.56;100.00
50065;BME280;35951;47.848;-122.338;2022-08-19T05:07:29;100922.00;;;22.54;100.00
50065;BME280;35951;47.848;-122.338;2022-08-19T05:09:56;100933.55;;;22.52;100.00
50065;BME280;35951;47.848;-122.338;2022-08-19T05:12:24;100925.66;;;22.50;100.00
50065;BME280;35951;47.848;-122.338;2022-08-19T05:14:54;100927.05;;;22.49;100.00
50065;BME280;35951;47.848;-122.338;2022-08-19T05:17:22;100922.66;;;22.48;100.00
50065;BME280;35951;47.848;-122.338;2022-08-19T05:19:50;100923.47;;;22.50;100.00
50065;BME280;35951;47.848;-122.338;2022-08-19T05:22:36;100908.02;;;22.51;100.00
50065;BME280;35951;47.848;-122.338;2022-08-19T05:25:07;100906.27;;;22.50;100.00
50065;BME280;35951;47.848;-122.338;2022-08-19T05:27:36;100909.05;;;22.47;100.00
50065;BME280;35951;47.848;-122.338;2022-08-19T05:30:04;100910.84;;;22.45;100.00
50065;BME280;35951;47.848;-122.338;2022-08-19T05:32:34;100906.44;;;22.45;100.00
50065;BME280;35951;47.848;-122.338;2022-08-19T05:35:01;100905.17;;;22.43;100.00
50065;BME280;35951;47.848;-122.338;2022-08-19T05:37:30;100920.58;;;22.44;100.00
50065;BME280;35951;47.848;-122.338;2022-08-19T05:39:57;100920.24;;;22.41;100.00
50065;BME280;35951;47.848;-122.338;2022-08-19T05:42:26;100915.85;;;22.40;100.00
50065;BME280;35951;47.848;-122.338;2022-08-19T05:44:54;100911.93;;;22.39;100.00
50065;BME280;35951;47.848;-122.338;2022-08-19T05:47:22;100916.88;;;22.36;100.00
50065;BME280;35951;47.848;-122.338;2022-08-19T05:49:51;100903.23;;;22.35;100.00
50065;BME280;35951;47.848;-122.338;2022-08-19T05:52:20;100893.92;;;22.37;100.00
50065;BME280;35951;47.848;-122.338;2022-08-19T05:54:48;100909.33;;;22.37;100.00
50065;BME280;35951;47.848;-122.338;2022-08-19T05:57:18;100918.55;;;22.39;100.00
50065;BME280;35951;47.848;-122.338;2022-08-19T05:59:47;100917.64;;;22.40;100.00
50065;BME280;35951;47.848;-122.338;2022-08-19T06:02:16;100907.91;;;22.40;100.00
50065;BME280;35951;47.848;-122.338;2022-08-19T06:04:44;100910.52;;;22.42;100.00
50065;BME280;35951;47.848;-122.338;2022-08-19T06:07:12;100913.58;;;22.43;100.00
50065;BME280;35951;47.848;-122.338;2022-08-19T06:09:41;100919.21;;;22.46;100.00
50065;BME280;35951;47.848;-122.338;2022-08-19T06:12:09;100927.05;;;22.49;100.00
50065;BME280;35951;47.848;-122.338;2022-08-19T06:14:37;100926.13;;;22.50;100.00
50065;BME280;35951;47.848;-122.338;2022-08-19T06:17:05;100923.13;;;22.47;100.00
50065;BME280;35951;47.848;-122.338;2022-08-19T06:19:33;100926.25;;;22.47;100.00
50065;BME280;35951;47.848;-122.338;2022-08-19T06:22:00;100926.30;;;22.45;100.00
50065;BME280;35951;47.848;-122.338;2022-08-19T06:24:29;100921.39;;;22.46;100.00
50065;BME280;35951;47.848;-122.338;2022-08-19T06:26:59;100914.38;;;22.45;100.00
50065;BME280;35951;47.848;-122.338;2022-08-19T06:29:28;100919.73;;;22.43;100.00
50065;BME280;35951;47.848;-122.338;2022-08-19T06:31:58;100915.80;;;22.42;100.00
50065;BME280;35951;47.848;-122.338;2022-08-19T06:34:28;100909.28;;;22.39;100.00
50065;BME280;35951;47.848;-122.338;2022-08-19T06:36:59;100909.03;;;22.33;100.00
50065;BME280;35951;47.848;-122.338;2022-08-19T06:39:30;100903.84;;;22.30;100.00
50065;BME280;35951;47.848;-122.338;2022-08-19T06:42:02;100887.67;;;22.26;100.00
50065;BME280;35951;47.848;-122.338;2022-08-19T06:44:33;100890.33;;;22.24;100.00
50065;BME280;35951;47.848;-122.338;2022-08-19T06:47:05;100893.14;;;22.20;100.00
50065;BME280;35951;47.848;-122.338;2022-08-19T06:49:35;100886.58;;;22.18;100.00
50065;BME280;35951;47.848;-122.338;2022-08-19T06:52:04;100884.35;;;22.19;100.00
50065;BME280;35951;47.848;-122.338;2022-08-19T06:54:32;100883.03;;;22.19;100.00
50065;BME280;35951;47.848;-122.338;2022-08-19T06:57:00;100879.97;;;22.18;100.00
50065;BME280;35951;47.848;-122.338;2022-08-19T06:59:30;100879.16;;;22.16;100.00
50065;BME280;35951;47.848;-122.338;2022-08-19T07:02:02;100886.33;;;22.13;100.00
50065;BME280;35951;47.848;-122.338;2022-08-19T07:04:34;100886.47;;;22.08;100.00
50065;BME280;35951;47.848;-122.338;2022-08-19T07:07:05;100888.82;;;22.04;100.00
50065;BME280;35951;47.848;-122.338;2022-08-19T07:09:37;100886.69;;;22.02;100.00
50065;BME280;35951;47.848;-122.338;2022-08-19T07:12:11;100892.11;;;21.97;100.00
50065;BME280;35951;47.848;-122.338;2022-08-19T07:14:42;100891.42;;;21.92;100.00
50065;BME280;35951;47.848;-122.338;2022-08-19T07:17:12;100896.12;;;21.82;100.00
50065;BME280;35951;47.848;-122.338;2022-08-19T07:19:40;100887.17;;;21.73;100.00
50065;BME280;35951;47.848;-122.338;2022-08-19T07:22:10;100889.09;;;21.68;100.00
50065;BME280;35951;47.848;-122.338;2022-08-19T07:24:39;100882.98;;;21.66;100.00
50065;BME280;35951;47.848;-122.338;2022-08-19T07:27:08;100880.81;;;21.65;100.00
50065;BME280;35951;47.848;-122.338;2022-08-19T07:29:36;100874.25;;;21.64;100.00
50065;BME280;35951;47.848;-122.338;2022-08-19T07:32:05;100862.44;;;21.61;100.00
50065;BME280;35951;47.848;-122.338;2022-08-19T07:34:34;100862.52;;;21.59;100.00
50065;BME280;35951;47.848;-122.338;2022-08-19T07:37:05;100865.16;;;21.59;100.00
50065;BME280;35951;47.848;-122.338;2022-08-19T07:39:35;100879.31;;;21.57;100.00
50065;BME280;35951;47.848;-122.338;2022-08-19T07:42:06;100885.16;;;21.53;100.00
50065;BME280;35951;47.848;-122.338;2022-08-19T07:44:35;100875.98;;;21.50;100.00
50065;BME280;35951;47.848;-122.338;2022-08-19T07:47:04;100854.92;;;21.49;100.00
50065;BME280;35951;47.848;-122.338;2022-08-19T07:49:33;100854.50;;;21.47;100.00
50065;BME280;35951;47.848;-122.338;2022-08-19T07:52:06;100867.67;;;21.49;100.00
50065;BME280;35951;47.848;-122.338;2022-08-19T07:54:38;100872.02;;;21.50;100.00
50065;BME280;35951;47.848;-122.338;2022-08-19T07:57:07;100864.86;;;21.54;100.00
50065;BME280;35951;47.848;-122.338;2022-08-19T07:59:36;100850.75;;;21.55;100.00
50065;BME280;35951;47.848;-122.338;2022-08-19T08:02:05;100850.41;;;21.52;100.00
50065;BME280;35951;47.848;-122.338;2022-08-19T08:04:34;100860.47;;;21.54;100.00
50065;BME280;35951;47.848;-122.338;2022-08-19T08:07:22;100861.75;;;21.56;100.00
50065;BME280;35951;47.848;-122.338;2022-08-19T08:10:08;100856.46;;;21.56;100.00
50065;BME280;35951;47.848;-122.338;2022-08-19T08:12:40;100846.48;;;21.51;100.00
50065;BME280;35951;47.848;-122.338;2022-08-19T08:15:11;100840.86;;;21.46;100.00
50065;BME280;35951;47.848;-122.338;2022-08-19T08:17:42;100842.26;;;21.45;100.00
50065;BME280;35951;47.848;-122.338;2022-08-19T08:20:10;100854.63;;;21.43;100.00
50065;BME280;35951;47.848;-122.338;2022-08-19T08:22:43;100867.97;;;21.38;100.00
50065;BME280;35951;47.848;-122.338;2022-08-19T08:25:30;100872.90;;;21.36;100.00
50065;BME280;35951;47.848;-122.338;2022-08-19T08:27:59;100861.05;;;21.34;100.00
50065;BME280;35951;47.848;-122.338;2022-08-19T08:30:27;100855.30;;;21.35;100.00
50065;BME280;35951;47.848;-122.338;2022-08-19T08:32:56;100858.37;;;21.36;100.00
50065;BME280;35951;47.848;-122.338;2022-08-19T08:35:25;100863.23;;;21.35;100.00
50065;BME280;35951;47.848;-122.338;2022-08-19T08:37:54;100863.23;;;21.35;100.00
50065;BME280;35951;47.848;-122.338;2022-08-19T08:45:57;100853.21;;;21.31;100.00
50065;BME280;35951;47.848;-122.338;2022-08-19T08:49:00;100845.06;;;21.24;100.00
50065;BME280;35951;47.848;-122.338;2022-08-19T08:51:43;100832.22;;;21.12;100.00
50065;BME280;35951;47.848;-122.338;2022-08-19T08:54:16;100828.19;;;21.00;100.00
50065;BME280;35951;47.848;-122.338;2022-08-19T08:56:45;100854.28;;;20.96;100.00
50065;BME280;35951;47.848;-122.338;2022-08-19T08:59:16;100858.36;;;20.91;100.00
50065;BME280;35951;47.848;-122.338;2022-08-19T09:01:56;100862.40;;;20.88;100.00
50065;BME280;35951;47.848;-122.338;2022-08-19T09:04:24;100856.98;;;20.78;100.00
50065;BME280;35951;47.848;-122.338;2022-08-19T09:07:19;100856.98;;;20.78;100.00
50065;BME280;35951;47.848;-122.338;2022-08-19T09:09:49;100852.83;;;20.69;100.00
50065;BME280;35951;47.848;-122.338;2022-08-19T09:15:12;100875.98;;;20.58;100.00
50065;BME280;35951;47.848;-122.338;2022-08-19T09:17:40;100874.84;;;20.50;100.00
50065;BME280;35951;47.848;-122.338;2022-08-19T09:20:14;100877.63;;;20.45;100.00
50065;BME280;35951;47.848;-122.338;2022-08-19T09:22:47;100880.38;;;20.41;100.00
50065;BME280;35951;47.848;-122.338;2022-08-19T09:25:20;100874.31;;;20.37;100.00
50065;BME280;35951;47.848;-122.338;2022-08-19T09:27:50;100860.69;;;20.38;100.00
50065;BME280;35951;47.848;-122.338;2022-08-19T09:30:31;100862.91;;;20.37;100.00
50065;BME280;35951;47.848;-122.338;2022-08-19T09:32:57;100892.38;;;20.36;100.00
50065;BME280;35951;47.848;-122.338;2022-08-19T09:35:27;100904.22;;;20.38;100.00
50065;BME280;35951;47.848;-122.338;2022-08-19T09:37:57;100890.20;;;20.36;100.00
50065;BME280;35951;47.848;-122.338;2022-08-19T09:40:27;100879.59;;;20.37;100.00
50065;BME280;35951;47.848;-122.338;2022-08-19T09:42:55;100879.48;;;20.42;100.00
50065;BME280;35951;47.848;-122.338;2022-08-19T09:45:24;100889.11;;;20.43;100.00
50065;BME280;35951;47.848;-122.338;2022-08-19T09:47:53;100882.48;;;20.44;100.00
50065;BME280;35951;47.848;-122.338;2022-08-19T09:50:21;100875.38;;;20.46;100.00
50065;BME280;35951;47.848;-122.338;2022-08-19T09:52:50;100880.13;;;20.50;100.00
50065;BME280;35951;47.848;-122.338;2022-08-19T09:55:20;100881.37;;;20.53;100.00
50065;BME280;35951;47.848;-122.338;2022-08-19T09:57:48;100883.97;;;20.55;100.00
50065;BME280;35951;47.848;-122.338;2022-08-19T10:00:16;100877.84;;;20.54;100.00
50065;BME280;35951;47.848;-122.338;2022-08-19T10:02:44;100878.23;;;20.55;100.00
50065;BME280;35951;47.848;-122.338;2022-08-19T10:05:13;100869.46;;;20.55;100.00
50065;BME280;35951;47.848;-122.338;2022-08-19T10:07:58;100860.19;;;20.56;100.00
50065;BME280;35951;47.848;-122.338;2022-08-19T10:10:27;100852.23;;;20.58;100.00
50065;BME280;35951;47.848;-122.338;2022-08-19T10:12:55;100854.45;;;20.57;100.00
50065;BME280;35951;47.848;-122.338;2022-08-19T10:15:22;100859.33;;;20.56;100.00
50065;BME280;35951;47.848;-122.338;2022-08-19T10:17:50;100857.55;;;20.56;100.00
50065;BME280;35951;47.848;-122.338;2022-08-19T10:20:18;100865.47;;;20.56;100.00
50065;BME280;35951;47.848;-122.338;2022-08-19T10:22:46;100882.58;;;20.58;100.00
50065;BME280;35951;47.848;-122.338;2022-08-19T10:25:13;100890.94;;;20.57;100.00
50065;BME280;35951;47.848;-122.338;2022-08-19T10:27:42;100888.22;;;20.60;100.00
50065;BME280;35951;47.848;-122.338;2022-08-19T10:30:10;100875.91;;;20.61;100.00
50065;BME280;35951;47.848;-122.338;2022-08-19T10:32:39;100878.94;;;20.63;100.00
50065;BME280;35951;47.848;-122.338;2022-08-19T10:35:07;100883.26;;;20.66;100.00
50065;BME280;35951;47.848;-122.338;2022-08-19T10:37:36;100888.03;;;20.68;100.00
50065;BME280;35951;47.848;-122.338;2022-08-19T10:40:06;100909.97;;;20.70;100.00
50065;BME280;35951;47.848;-122.338;2022-08-19T10:42:36;100910.52;;;20.66;100.00
50065;BME280;35951;47.848;-122.338;2022-08-19T10:45:05;100899.55;;;20.65;100.00
50065;BME280;35951;47.848;-122.338;2022-08-19T10:47:36;100893.42;;;20.65;100.00
50065;BME280;35951;47.848;-122.338;2022-08-19T10:50:04;100903.88;;;20.68;100.00
50065;BME280;35951;47.848;-122.338;2022-08-19T10:52:51;100906.02;;;20.70;100.00
50065;BME280;35951;47.848;-122.338;2022-08-19T10:55:21;100901.66;;;20.69;100.00
50065;BME280;35951;47.848;-122.338;2022-08-19T10:58:16;100893.35;;;20.66;100.00
50065;BME280;35951;47.848;-122.338;2022-08-19T11:00:56;100902.16;;;20.67;100.00
50065;BME280;35951;47.848;-122.338;2022-08-19T11:03:21;100887.68;;;20.65;100.00
50065;BME280;35951;47.848;-122.338;2022-08-19T11:05:59;100882.36;;;20.67;100.00
50065;BME280;35951;47.848;-122.338;2022-08-19T11:08:29;100881.05;;;20.67;100.00
50065;BME280;35951;47.848;-122.338;2022-08-19T11:10:59;100878.84;;;20.66;100.00
50065;BME280;35951;47.848;-122.338;2022-08-19T11:13:30;100879.73;;;20.67;100.00
50065;BME280;35951;47.848;-122.338;2022-08-19T11:16:03;100893.35;;;20.66;100.00
50065;BME280;35951;47.848;-122.338;2022-08-19T11:18:34;100903.91;;;20.66;100.00
50065;BME280;35951;47.848;-122.338;2022-08-19T11:21:08;100886.72;;;20.68;100.00
50065;BME280;35951;47.848;-122.338;2022-08-19T11:23:41;100875.77;;;20.67;100.00
50065;BME280;35951;47.848;-122.338;2022-08-19T11:26:10;100871.30;;;20.69;100.00
50065;BME280;35951;47.848;-122.338;2022-08-19T11:28:39;100884.08;;;20.68;100.00
50065;BME280;35951;47.848;-122.338;2022-08-19T11:31:18;100896.45;;;20.66;100.00
50065;BME280;35951;47.848;-122.338;2022-08-19T11:33:49;100893.35;;;20.66;100.00
50065;BME280;35951;47.848;-122.338;2022-08-19T11:36:19;100900.73;;;20.70;100.00
50065;BME280;35951;47.848;-122.338;2022-08-19T11:38:51;100921.42;;;20.70;100.00
50065;BME280;35951;47.848;-122.338;2022-08-19T11:41:20;100915.25;;;20.70;100.00
50065;BME280;35951;47.848;-122.338;2022-08-19T11:43:52;100908.19;;;20.72;100.00
50065;BME280;35951;47.848;-122.338;2022-08-19T11:46:22;100913.36;;;20.75;100.00
50065;BME280;35951;47.848;-122.338;2022-08-19T11:48:52;100923.52;;;20.74;100.00
50065;BME280;35951;47.848;-122.338;2022-08-19T11:51:22;100926.16;;;20.74;100.00
50065;BME280;35951;47.848;-122.338;2022-08-19T11:53:54;100938.87;;;20.76;100.00
50065;BME280;35951;47.848;-122.338;2022-08-19T11:56:23;100946.28;;;20.78;100.00
50065;BME280;35951;47.848;-122.338;2022-08-19T11:58:52;100941.44;;;20.79;100.00
50065;BME280;35951;47.848;-122.338;2022-08-19T12:01:22;100944.00;;;20.81;100.00
50065;BME280;35951;47.848;-122.338;2022-08-19T12:03:52;100941.36;;;20.81;100.00
50065;BME280;35951;47.848;-122.338;2022-08-19T12:06:30;100953.34;;;20.78;100.00
50065;BME280;35951;47.848;-122.338;2022-08-19T12:08:58;100957.81;;;20.76;100.00
50065;BME280;35951;47.848;-122.338;2022-08-19T12:11:26;100952.64;;;20.71;100.00
50065;BME280;35951;47.848;-122.338;2022-08-19T12:13:54;100952.20;;;20.70;100.00
50065;BME280;35951;47.848;-122.338;2022-08-19T12:16:24;100934.05;;;20.58;100.00
50065;BME280;35951;47.848;-122.338;2022-08-19T12:18:53;100952.64;;;20.71;100.00
50065;BME280;35951;47.848;-122.338;2022-08-19T12:21:23;100957.88;;;20.73;100.00
50065;BME280;35951;47.848;-122.338;2022-08-19T12:23:56;100963.09;;;20.76;100.00
50065;BME280;35951;47.848;-122.338;2022-08-19T12:26:26;100969.19;;;20.78;100.00
50065;BME280;35951;47.848;-122.338;2022-08-19T12:28:55;100974.47;;;20.78;100.00
50065;BME280;35951;47.848;-122.338;2022-08-19T12:31:25;100986.75;;;20.79;100.00
50065;BME280;35951;47.848;-122.338;2022-08-19T12:33:55;100995.16;;;20.77;100.00
50065;BME280;35951;47.848;-122.338;2022-08-19T12:36:24;100993.48;;;20.74;100.00
50065;BME280;35951;47.848;-122.338;2022-08-19T12:38:53;100993.13;;;20.70;100.00